Decoded Metar for LFBP (PAU in FRANCE) (IATA:PUF) | Meteo·Mobile Aviation Weather
aviador You're here:

LFBP Decoded Metar

PAU in FRANCE
Report Time2019-09-17 00:30:00
UTC Time2019-09-17 00:59:19
Flight Rules vfr VFR
Wind270° at 02 kt
W.Decomp.*RWY 31: 1.6 kt HW 1.3 kt LCW
Visibility9999 m
Phenomena:N/A
Clouds:N/A
Expected CloudBase > 400 ft AGL from Temp-Dew spread
CeilingNone
Temp19°C (ISA +5)
Dew Point18°C (94% RH)
QNH1019 hPa
Density Alt1,289 ft
Elevation607 ft
Report Wrong Elevation
Raw Report
LFBP 170030Z AUTO 27002KT 9999 NCD 19/18 Q1019 NOSIG=

Extra information for LFBP:More info

Metar Taf Metar & Taf Last 4 Metars F.Rules Stats Wind Profile Meteogram Temp Stats Airport Information Weather charts Add Link Nearby VenuesMetar ALERT Operation Metar Decoded Social comments